sensor_id;sensor_type;location;lat;lon;timestamp;P1;durP1;ratioP1;P2;durP2;ratioP2
47519;SDS011;33252;48.122;11.538;2023-05-10T00:00:26;0.70;;;0.40;;
47519;SDS011;33252;48.122;11.538;2023-05-10T00:02:52;1.08;;;0.60;;
47519;SDS011;33252;48.122;11.538;2023-05-10T00:05:18;2.38;;;0.50;;
47519;SDS011;33252;48.122;11.538;2023-05-10T00:07:43;1.42;;;0.60;;
47519;SDS011;33252;48.122;11.538;2023-05-10T00:10:10;1.60;;;0.47;;
47519;SDS011;33252;48.122;11.538;2023-05-10T00:12:36;2.00;;;0.55;;
47519;SDS011;33252;48.122;11.538;2023-05-10T00:15:01;0.52;;;0.50;;
47519;SDS011;33252;48.122;11.538;2023-05-10T00:17:28;1.25;;;0.40;;
47519;SDS011;33252;48.122;11.538;2023-05-10T00:19:53;1.70;;;0.40;;
47519;SDS011;33252;48.122;11.538;2023-05-10T00:22:19;4.30;;;0.60;;
47519;SDS011;33252;48.122;11.538;2023-05-10T00:24:45;0.70;;;0.40;;
47519;SDS011;33252;48.122;11.538;2023-05-10T00:27:11;0.57;;;0.32;;
47519;SDS011;33252;48.122;11.538;2023-05-10T00:29:37;1.40;;;0.60;;
47519;SDS011;33252;48.122;11.538;2023-05-10T00:32:02;0.30;;;0.30;;
47519;SDS011;33252;48.122;11.538;2023-05-10T00:34:28;0.60;;;0.40;;
47519;SDS011;33252;48.122;11.538;2023-05-10T00:36:54;0.65;;;0.40;;
47519;SDS011;33252;48.122;11.538;2023-05-10T00:39:20;0.65;;;0.30;;
47519;SDS011;33252;48.122;11.538;2023-05-10T00:41:46;0.47;;;0.40;;
47519;SDS011;33252;48.122;11.538;2023-05-10T00:44:11;1.65;;;0.22;;
47519;SDS011;33252;48.122;11.538;2023-05-10T00:46:37;0.50;;;0.20;;
47519;SDS011;33252;48.122;11.538;2023-05-10T00:49:03;0.60;;;0.45;;
47519;SDS011;33252;48.122;11.538;2023-05-10T00:51:29;1.40;;;0.43;;
47519;SDS011;33252;48.122;11.538;2023-05-10T00:53:56;2.83;;;0.30;;
47519;SDS011;33252;48.122;11.538;2023-05-10T00:56:22;0.68;;;0.40;;
47519;SDS011;33252;48.122;11.538;2023-05-10T00:58:49;1.15;;;0.30;;
47519;SDS011;33252;48.122;11.538;2023-05-10T01:01:15;0.40;;;0.20;;
47519;SDS011;33252;48.122;11.538;2023-05-10T01:03:41;0.38;;;0.30;;
47519;SDS011;33252;48.122;11.538;2023-05-10T01:06:07;0.95;;;0.30;;
47519;SDS011;33252;48.122;11.538;2023-05-10T01:08:34;1.02;;;0.30;;
47519;SDS011;33252;48.122;11.538;2023-05-10T01:11:00;0.65;;;0.20;;
47519;SDS011;33252;48.122;11.538;2023-05-10T01:15:57;0.40;;;0.20;;
47519;SDS011;33252;48.122;11.538;2023-05-10T01:18:26;0.20;;;0.20;;
47519;SDS011;33252;48.122;11.538;2023-05-10T01:21:43;0.52;;;0.20;;
47519;SDS011;33252;48.122;11.538;2023-05-10T01:30:00;0.75;;;0.20;;
47519;SDS011;33252;48.122;11.538;2023-05-10T01:32:31;1.25;;;0.13;;
47519;SDS011;33252;48.122;11.538;2023-05-10T01:35:17;1.17;;;0.20;;
47519;SDS011;33252;48.122;11.538;2023-05-10T01:38:11;0.47;;;0.22;;
47519;SDS011;33252;48.122;11.538;2023-05-10T01:43:30;0.10;;;0.10;;
47519;SDS011;33252;48.122;11.538;2023-05-10T01:46:04;1.48;;;0.20;;
47519;SDS011;33252;48.122;11.538;2023-05-10T01:48:40;0.63;;;0.20;;
47519;SDS011;33252;48.122;11.538;2023-05-10T01:51:12;0.43;;;0.25;;
47519;SDS011;33252;48.122;11.538;2023-05-10T01:53:44;0.35;;;0.10;;
47519;SDS011;33252;48.122;11.538;2023-05-10T01:56:13;1.27;;;0.20;;
47519;SDS011;33252;48.122;11.538;2023-05-10T01:58:40;0.30;;;0.20;;
47519;SDS011;33252;48.122;11.538;2023-05-10T02:01:10;0.35;;;0.13;;
47519;SDS011;33252;48.122;11.538;2023-05-10T02:03:37;0.47;;;0.22;;
47519;SDS011;33252;48.122;11.538;2023-05-10T02:06:04;1.52;;;0.40;;
47519;SDS011;33252;48.122;11.538;2023-05-10T02:08:32;0.95;;;0.28;;
47519;SDS011;33252;48.122;11.538;2023-05-10T02:11:01;0.63;;;0.20;;
47519;SDS011;33252;48.122;11.538;2023-05-10T02:13:28;1.08;;;0.10;;
47519;SDS011;33252;48.122;11.538;2023-05-10T02:15:57;0.55;;;0.20;;
47519;SDS011;33252;48.122;11.538;2023-05-10T02:18:25;0.35;;;0.20;;
47519;SDS011;33252;48.122;11.538;2023-05-10T02:20:52;0.38;;;0.30;;
47519;SDS011;33252;48.122;11.538;2023-05-10T02:23:20;0.45;;;0.20;;
47519;SDS011;33252;48.122;11.538;2023-05-10T02:25:46;1.23;;;0.20;;
47519;SDS011;33252;48.122;11.538;2023-05-10T02:28:15;0.90;;;0.25;;
47519;SDS011;33252;48.122;11.538;2023-05-10T02:30:42;1.20;;;0.20;;
47519;SDS011;33252;48.122;11.538;2023-05-10T02:33:08;0.40;;;0.20;;
47519;SDS011;33252;48.122;11.538;2023-05-10T02:35:34;0.45;;;0.20;;
47519;SDS011;33252;48.122;11.538;2023-05-10T02:38:00;0.80;;;0.25;;
47519;SDS011;33252;48.122;11.538;2023-05-10T02:40:27;0.47;;;0.30;;
47519;SDS011;33252;48.122;11.538;2023-05-10T02:42:54;0.60;;;0.30;;
47519;SDS011;33252;48.122;11.538;2023-05-10T02:45:22;0.55;;;0.20;;
47519;SDS011;33252;48.122;11.538;2023-05-10T02:47:51;0.50;;;0.30;;
47519;SDS011;33252;48.122;11.538;2023-05-10T02:50:17;0.20;;;0.20;;
47519;SDS011;33252;48.122;11.538;2023-05-10T02:52:46;0.47;;;0.20;;
47519;SDS011;33252;48.122;11.538;2023-05-10T02:57:56;0.80;;;0.32;;
47519;SDS011;33252;48.122;11.538;2023-05-10T03:00:25;0.40;;;0.32;;
47519;SDS011;33252;48.122;11.538;2023-05-10T03:02:51;0.90;;;0.20;;
47519;SDS011;33252;48.122;11.538;2023-05-10T03:05:16;1.48;;;0.40;;
47519;SDS011;33252;48.122;11.538;2023-05-10T03:07:43;0.50;;;0.30;;
47519;SDS011;33252;48.122;11.538;2023-05-10T03:10:09;0.60;;;0.30;;
47519;SDS011;33252;48.122;11.538;2023-05-10T03:12:46;1.73;;;0.28;;
47519;SDS011;33252;48.122;11.538;2023-05-10T03:15:53;0.40;;;0.13;;
47519;SDS011;33252;48.122;11.538;2023-05-10T03:18:44;0.73;;;0.30;;
47519;SDS011;33252;48.122;11.538;2023-05-10T03:21:26;0.32;;;0.20;;
47519;SDS011;33252;48.122;11.538;2023-05-10T03:24:07;0.80;;;0.30;;
47519;SDS011;33252;48.122;11.538;2023-05-10T03:26:36;0.85;;;0.10;;
47519;SDS011;33252;48.122;11.538;2023-05-10T03:29:04;2.40;;;0.10;;
47519;SDS011;33252;48.122;11.538;2023-05-10T03:31:31;0.68;;;0.10;;
47519;SDS011;33252;48.122;11.538;2023-05-10T03:33:57;0.55;;;0.20;;
47519;SDS011;33252;48.122;11.538;2023-05-10T03:36:23;0.15;;;0.10;;
47519;SDS011;33252;48.122;11.538;2023-05-10T03:38:49;0.85;;;0.30;;
47519;SDS011;33252;48.122;11.538;2023-05-10T03:41:15;1.10;;;0.10;;
47519;SDS011;33252;48.122;11.538;2023-05-10T03:43:40;0.30;;;0.10;;
47519;SDS011;33252;48.122;11.538;2023-05-10T03:46:06;0.30;;;0.15;;
47519;SDS011;33252;48.122;11.538;2023-05-10T03:48:32;0.43;;;0.20;;
47519;SDS011;33252;48.122;11.538;2023-05-10T03:50:58;0.15;;;0.10;;
47519;SDS011;33252;48.122;11.538;2023-05-10T03:53:23;0.43;;;0.20;;
47519;SDS011;33252;48.122;11.538;2023-05-10T03:55:50;0.40;;;0.20;;
47519;SDS011;33252;48.122;11.538;2023-05-10T03:58:15;0.00;;;0.00;;
47519;SDS011;33252;48.122;11.538;2023-05-10T04:00:41;0.80;;;0.30;;
47519;SDS011;33252;48.122;11.538;2023-05-10T04:03:09;0.50;;;0.13;;
47519;SDS011;33252;48.122;11.538;2023-05-10T04:05:36;0.35;;;0.20;;
47519;SDS011;33252;48.122;11.538;2023-05-10T04:08:02;0.10;;;0.10;;
47519;SDS011;33252;48.122;11.538;2023-05-10T04:10:29;0.45;;;0.10;;
47519;SDS011;33252;48.122;11.538;2023-05-10T04:12:54;1.20;;;0.20;;
47519;SDS011;33252;48.122;11.538;2023-05-10T04:15:20;1.23;;;0.30;;
47519;SDS011;33252;48.122;11.538;2023-05-10T04:17:46;0.10;;;0.10;;
47519;SDS011;33252;48.122;11.538;2023-05-10T04:20:12;1.38;;;0.10;;
47519;SDS011;33252;48.122;11.538;2023-05-10T04:22:38;0.20;;;0.10;;
47519;SDS011;33252;48.122;11.538;2023-05-10T04:25:03;0.22;;;0.20;;
47519;SDS011;33252;48.122;11.538;2023-05-10T04:27:29;1.90;;;0.20;;
47519;SDS011;33252;48.122;11.538;2023-05-10T04:29:56;1.02;;;0.20;;
47519;SDS011;33252;48.122;11.538;2023-05-10T04:32:22;0.45;;;0.45;;
47519;SDS011;33252;48.122;11.538;2023-05-10T04:34:47;0.20;;;0.20;;
47519;SDS011;33252;48.122;11.538;2023-05-10T04:37:13;0.32;;;0.10;;
47519;SDS011;33252;48.122;11.538;2023-05-10T04:39:39;0.85;;;0.10;;
47519;SDS011;33252;48.122;11.538;2023-05-10T04:42:05;0.13;;;0.10;;
47519;SDS011;33252;48.122;11.538;2023-05-10T04:44:31;0.30;;;0.10;;
47519;SDS011;33252;48.122;11.538;2023-05-10T04:46:57;0.73;;;0.20;;
47519;SDS011;33252;48.122;11.538;2023-05-10T04:49:22;0.20;;;0.10;;
47519;SDS011;33252;48.122;11.538;2023-05-10T04:51:48;0.20;;;0.10;;
47519;SDS011;33252;48.122;11.538;2023-05-10T04:54:14;0.35;;;0.10;;
47519;SDS011;33252;48.122;11.538;2023-05-10T04:56:39;4.68;;;1.00;;
47519;SDS011;33252;48.122;11.538;2023-05-10T04:59:05;1.48;;;0.20;;
47519;SDS011;33252;48.122;11.538;2023-05-10T05:01:31;0.50;;;0.10;;
47519;SDS011;33252;48.122;11.538;2023-05-10T05:03:57;1.00;;;0.20;;
47519;SDS011;33252;48.122;11.538;2023-05-10T05:06:23;0.60;;;0.17;;
47519;SDS011;33252;48.122;11.538;2023-05-10T05:08:49;0.30;;;0.10;;
47519;SDS011;33252;48.122;11.538;2023-05-10T05:11:15;2.83;;;0.20;;
47519;SDS011;33252;48.122;11.538;2023-05-10T05:13:44;0.38;;;0.20;;
47519;SDS011;33252;48.122;11.538;2023-05-10T05:16:10;0.40;;;0.10;;
47519;SDS011;33252;48.122;11.538;2023-05-10T05:18:36;0.15;;;0.15;;
47519;SDS011;33252;48.122;11.538;2023-05-10T05:21:01;1.65;;;0.30;;
47519;SDS011;33252;48.122;11.538;2023-05-10T05:23:27;1.17;;;0.22;;
47519;SDS011;33252;48.122;11.538;2023-05-10T05:25:53;0.73;;;0.20;;
47519;SDS011;33252;48.122;11.538;2023-05-10T05:28:19;0.55;;;0.13;;
47519;SDS011;33252;48.122;11.538;2023-05-10T05:30:45;0.15;;;0.10;;
47519;SDS011;33252;48.122;11.538;2023-05-10T05:33:12;0.38;;;0.20;;
47519;SDS011;33252;48.122;11.538;2023-05-10T05:35:39;2.30;;;0.20;;
47519;SDS011;33252;48.122;11.538;2023-05-10T05:38:04;1.13;;;0.10;;
47519;SDS011;33252;48.122;11.538;2023-05-10T05:40:31;0.10;;;0.10;;
47519;SDS011;33252;48.122;11.538;2023-05-10T05:42:56;1.35;;;0.10;;
47519;SDS011;33252;48.122;11.538;2023-05-10T05:45:22;0.43;;;0.28;;
47519;SDS011;33252;48.122;11.538;2023-05-10T05:47:47;1.95;;;0.20;;
47519;SDS011;33252;48.122;11.538;2023-05-10T05:50:13;0.47;;;0.15;;
47519;SDS011;33252;48.122;11.538;2023-05-10T05:52:39;1.92;;;0.28;;
47519;SDS011;33252;48.122;11.538;2023-05-10T05:55:04;0.65;;;0.20;;
47519;SDS011;33252;48.122;11.538;2023-05-10T05:57:30;1.85;;;0.30;;
47519;SDS011;33252;48.122;11.538;2023-05-10T05:59:56;0.82;;;0.30;;
47519;SDS011;33252;48.122;11.538;2023-05-10T06:02:22;0.20;;;0.10;;
47519;SDS011;33252;48.122;11.538;2023-05-10T06:04:47;1.65;;;0.20;;
47519;SDS011;33252;48.122;11.538;2023-05-10T06:07:13;2.33;;;0.20;;
47519;SDS011;33252;48.122;11.538;2023-05-10T06:09:38;0.25;;;0.20;;
47519;SDS011;33252;48.122;11.538;2023-05-10T06:12:04;0.60;;;0.40;;
47519;SDS011;33252;48.122;11.538;2023-05-10T06:14:30;0.95;;;0.25;;
47519;SDS011;33252;48.122;11.538;2023-05-10T06:16:55;0.80;;;0.30;;
47519;SDS011;33252;48.122;11.538;2023-05-10T06:19:21;1.17;;;0.25;;
47519;SDS011;33252;48.122;11.538;2023-05-10T06:21:47;0.82;;;0.25;;
47519;SDS011;33252;48.122;11.538;2023-05-10T06:24:12;5.75;;;0.70;;
47519;SDS011;33252;48.122;11.538;2023-05-10T06:26:38;1.95;;;0.40;;
47519;SDS011;33252;48.122;11.538;2023-05-10T06:29:04;1.05;;;0.28;;
47519;SDS011;33252;48.122;11.538;2023-05-10T06:31:29;1.75;;;0.43;;
47519;SDS011;33252;48.122;11.538;2023-05-10T06:33:55;1.50;;;0.30;;
47519;SDS011;33252;48.122;11.538;2023-05-10T06:36:21;0.77;;;0.30;;
47519;SDS011;33252;48.122;11.538;2023-05-10T06:38:47;1.27;;;0.50;;
47519;SDS011;33252;48.122;11.538;2023-05-10T06:41:12;2.10;;;0.30;;
47519;SDS011;33252;48.122;11.538;2023-05-10T06:43:38;1.23;;;0.57;;
47519;SDS011;33252;48.122;11.538;2023-05-10T06:46:06;0.90;;;0.50;;
47519;SDS011;33252;48.122;11.538;2023-05-10T06:48:32;0.75;;;0.28;;
47519;SDS011;33252;48.122;11.538;2023-05-10T06:50:57;1.05;;;0.40;;
47519;SDS011;33252;48.122;11.538;2023-05-10T06:53:23;1.25;;;0.60;;
47519;SDS011;33252;48.122;11.538;2023-05-10T06:55:49;0.85;;;0.50;;
47519;SDS011;33252;48.122;11.538;2023-05-10T06:58:14;1.42;;;0.30;;
47519;SDS011;33252;48.122;11.538;2023-05-10T07:00:40;2.38;;;0.50;;
47519;SDS011;33252;48.122;11.538;2023-05-10T07:03:09;1.23;;;0.40;;
47519;SDS011;33252;48.122;11.538;2023-05-10T07:05:35;1.67;;;0.57;;
47519;SDS011;33252;48.122;11.538;2023-05-10T07:08:00;1.85;;;0.50;;
47519;SDS011;33252;48.122;11.538;2023-05-10T07:10:26;0.80;;;0.40;;
47519;SDS011;33252;48.122;11.538;2023-05-10T07:12:52;0.50;;;0.40;;
47519;SDS011;33252;48.122;11.538;2023-05-10T07:15:18;1.33;;;0.60;;
47519;SDS011;33252;48.122;11.538;2023-05-10T07:17:43;2.83;;;0.55;;
47519;SDS011;33252;48.122;11.538;2023-05-10T07:20:10;0.80;;;0.40;;
47519;SDS011;33252;48.122;11.538;2023-05-10T07:22:36;1.33;;;0.40;;
47519;SDS011;33252;48.122;11.538;2023-05-10T07:25:02;0.98;;;0.50;;
47519;SDS011;33252;48.122;11.538;2023-05-10T07:27:27;2.65;;;0.50;;
47519;SDS011;33252;48.122;11.538;2023-05-10T07:29:53;1.95;;;0.60;;
47519;SDS011;33252;48.122;11.538;2023-05-10T07:32:19;1.67;;;0.43;;
47519;SDS011;33252;48.122;11.538;2023-05-10T07:34:45;1.45;;;0.57;;
47519;SDS011;33252;48.122;11.538;2023-05-10T07:37:11;1.65;;;0.50;;
47519;SDS011;33252;48.122;11.538;2023-05-10T07:39:37;1.08;;;0.40;;
47519;SDS011;33252;48.122;11.538;2023-05-10T07:42:02;2.88;;;0.60;;
47519;SDS011;33252;48.122;11.538;2023-05-10T07:44:28;2.95;;;0.60;;
47519;SDS011;33252;48.122;11.538;2023-05-10T07:46:54;1.05;;;0.60;;
47519;SDS011;33252;48.122;11.538;2023-05-10T07:49:20;2.17;;;0.47;;
47519;SDS011;33252;48.122;11.538;2023-05-10T07:51:46;0.98;;;0.70;;
47519;SDS011;33252;48.122;11.538;2023-05-10T07:54:12;0.82;;;0.50;;
47519;SDS011;33252;48.122;11.538;2023-05-10T07:56:39;1.63;;;0.70;;
47519;SDS011;33252;48.122;11.538;2023-05-10T07:59:09;1.45;;;0.70;;
47519;SDS011;33252;48.122;11.538;2023-05-10T08:01:35;1.45;;;0.63;;
47519;SDS011;33252;48.122;11.538;2023-05-10T08:04:01;1.15;;;0.50;;
47519;SDS011;33252;48.122;11.538;2023-05-10T08:06:27;0.65;;;0.38;;
47519;SDS011;33252;48.122;11.538;2023-05-10T08:08:55;2.95;;;1.13;;
47519;SDS011;33252;48.122;11.538;2023-05-10T08:11:20;0.93;;;0.40;;
47519;SDS011;33252;48.122;11.538;2023-05-10T08:13:47;0.68;;;0.30;;
47519;SDS011;33252;48.122;11.538;2023-05-10T08:16:13;1.55;;;0.68;;
47519;SDS011;33252;48.122;11.538;2023-05-10T08:18:39;0.75;;;0.25;;
47519;SDS011;33252;48.122;11.538;2023-05-10T08:21:05;0.88;;;0.40;;
47519;SDS011;33252;48.122;11.538;2023-05-10T08:23:31;1.02;;;0.40;;
47519;SDS011;33252;48.122;11.538;2023-05-10T08:25:57;2.60;;;0.40;;
47519;SDS011;33252;48.122;11.538;2023-05-10T08:28:22;1.75;;;0.30;;
47519;SDS011;33252;48.122;11.538;2023-05-10T08:30:49;1.02;;;0.30;;
47519;SDS011;33252;48.122;11.538;2023-05-10T08:33:15;1.90;;;0.40;;
47519;SDS011;33252;48.122;11.538;2023-05-10T08:35:42;0.75;;;0.30;;
47519;SDS011;33252;48.122;11.538;2023-05-10T08:38:08;0.50;;;0.32;;
47519;SDS011;33252;48.122;11.538;2023-05-10T08:40:33;3.85;;;0.40;;
47519;SDS011;33252;48.122;11.538;2023-05-10T08:43:05;2.80;;;0.52;;
47519;SDS011;33252;48.122;11.538;2023-05-10T08:45:33;1.23;;;0.60;;
47519;SDS011;33252;48.122;11.538;2023-05-10T08:48:03;0.63;;;0.40;;
47519;SDS011;33252;48.122;11.538;2023-05-10T08:50:31;2.17;;;0.45;;
47519;SDS011;33252;48.122;11.538;2023-05-10T08:52:59;1.13;;;0.57;;
47519;SDS011;33252;48.122;11.538;2023-05-10T08:55:26;4.03;;;0.75;;
47519;SDS011;33252;48.122;11.538;2023-05-10T08:57:52;1.85;;;0.55;;
47519;SDS011;33252;48.122;11.538;2023-05-10T09:00:18;1.38;;;0.30;;
47519;SDS011;33252;48.122;11.538;2023-05-10T09:02:45;0.45;;;0.45;;
47519;SDS011;33252;48.122;11.538;2023-05-10T09:05:13;1.00;;;0.50;;
47519;SDS011;33252;48.122;11.538;2023-05-10T09:07:41;0.95;;;0.30;;
47519;SDS011;33252;48.122;11.538;2023-05-10T09:10:07;2.25;;;0.60;;
47519;SDS011;33252;48.122;11.538;2023-05-10T09:12:33;1.23;;;0.60;;
47519;SDS011;33252;48.122;11.538;2023-05-10T09:15:00;0.70;;;0.30;;
47519;SDS011;33252;48.122;11.538;2023-05-10T09:17:28;3.20;;;0.50;;
47519;SDS011;33252;48.122;11.538;2023-05-10T09:20:02;1.30;;;1.02;;
47519;SDS011;33252;48.122;11.538;2023-05-10T09:22:31;2.30;;;0.40;;
47519;SDS011;33252;48.122;11.538;2023-05-10T09:25:03;1.02;;;0.30;;
47519;SDS011;33252;48.122;11.538;2023-05-10T09:27:37;1.80;;;0.30;;
47519;SDS011;33252;48.122;11.538;2023-05-10T09:30:03;0.75;;;0.38;;
47519;SDS011;33252;48.122;11.538;2023-05-10T09:35:15;0.40;;;0.30;;
47519;SDS011;33252;48.122;11.538;2023-05-10T09:37:43;2.60;;;0.30;;
47519;SDS011;33252;48.122;11.538;2023-05-10T09:40:11;1.70;;;0.40;;
47519;SDS011;33252;48.122;11.538;2023-05-10T09:42:38;1.45;;;0.40;;
47519;SDS011;33252;48.122;11.538;2023-05-10T09:45:05;2.10;;;0.38;;
47519;SDS011;33252;48.122;11.538;2023-05-10T09:47:33;3.80;;;1.10;;
47519;SDS011;33252;48.122;11.538;2023-05-10T09:49:59;1.88;;;0.80;;
47519;SDS011;33252;48.122;11.538;2023-05-10T09:52:45;1.10;;;0.30;;
47519;SDS011;33252;48.122;11.538;2023-05-10T09:55:12;0.82;;;0.30;;
47519;SDS011;33252;48.122;11.538;2023-05-10T09:57:37;3.33;;;0.55;;
47519;SDS011;33252;48.122;11.538;2023-05-10T10:00:04;1.50;;;0.60;;
47519;SDS011;33252;48.122;11.538;2023-05-10T10:02:31;0.60;;;0.40;;
47519;SDS011;33252;48.122;11.538;2023-05-10T10:04:57;3.03;;;0.35;;
47519;SDS011;33252;48.122;11.538;2023-05-10T10:07:25;2.35;;;0.47;;
47519;SDS011;33252;48.122;11.538;2023-05-10T10:09:52;0.93;;;0.30;;
47519;SDS011;33252;48.122;11.538;2023-05-10T10:12:18;2.15;;;0.30;;
47519;SDS011;33252;48.122;11.538;2023-05-10T10:14:48;0.68;;;0.30;;
47519;SDS011;33252;48.122;11.538;2023-05-10T10:17:15;1.98;;;0.32;;
47519;SDS011;33252;48.122;11.538;2023-05-10T10:19:41;0.32;;;0.22;;
47519;SDS011;33252;48.122;11.538;2023-05-10T10:22:07;1.23;;;0.20;;
47519;SDS011;33252;48.122;11.538;2023-05-10T10:24:35;0.40;;;0.20;;
47519;SDS011;33252;48.122;11.538;2023-05-10T10:27:04;0.60;;;0.30;;
47519;SDS011;33252;48.122;11.538;2023-05-10T10:32:59;1.15;;;0.40;;
47519;SDS011;33252;48.122;11.538;2023-05-10T10:35:29;2.85;;;0.40;;
47519;SDS011;33252;48.122;11.538;2023-05-10T10:37:56;1.15;;;0.32;;
47519;SDS011;33252;48.122;11.538;2023-05-10T10:40:28;0.30;;;0.20;;
47519;SDS011;33252;48.122;11.538;2023-05-10T10:42:56;2.15;;;0.30;;
47519;SDS011;33252;48.122;11.538;2023-05-10T10:45:23;3.17;;;0.80;;
47519;SDS011;33252;48.122;11.538;2023-05-10T10:50:47;0.60;;;0.35;;
47519;SDS011;33252;48.122;11.538;2023-05-10T10:53:13;2.05;;;0.50;;
47519;SDS011;33252;48.122;11.538;2023-05-10T10:55:48;1.95;;;0.50;;
47519;SDS011;33252;48.122;11.538;2023-05-10T10:58:30;1.52;;;0.30;;
47519;SDS011;33252;48.122;11.538;2023-05-10T11:03:41;2.13;;;0.40;;
47519;SDS011;33252;48.122;11.538;2023-05-10T11:06:28;1.00;;;0.40;;
47519;SDS011;33252;48.122;11.538;2023-05-10T11:08:58;1.08;;;0.70;;
47519;SDS011;33252;48.122;11.538;2023-05-10T11:11:48;1.00;;;0.47;;
47519;SDS011;33252;48.122;11.538;2023-05-10T11:14:17;3.67;;;0.60;;
47519;SDS011;33252;48.122;11.538;2023-05-10T11:16:46;2.22;;;0.50;;
47519;SDS011;33252;48.122;11.538;2023-05-10T11:19:12;2.13;;;0.73;;
47519;SDS011;33252;48.122;11.538;2023-05-10T11:24:19;1.33;;;0.70;;
47519;SDS011;33252;48.122;11.538;2023-05-10T11:26:52;2.17;;;0.70;;
47519;SDS011;33252;48.122;11.538;2023-05-10T11:29:18;5.10;;;0.93;;
47519;SDS011;33252;48.122;11.538;2023-05-10T11:31:45;0.75;;;0.65;;
47519;SDS011;33252;48.122;11.538;2023-05-10T11:34:12;3.80;;;1.05;;
47519;SDS011;33252;48.122;11.538;2023-05-10T11:36:52;6.15;;;1.15;;
47519;SDS011;33252;48.122;11.538;2023-05-10T11:39:19;1.40;;;0.93;;
47519;SDS011;33252;48.122;11.538;2023-05-10T11:41:48;3.97;;;1.40;;
47519;SDS011;33252;48.122;11.538;2023-05-10T11:44:14;4.13;;;1.55;;
47519;SDS011;33252;48.122;11.538;2023-05-10T11:46:40;2.58;;;1.13;;
47519;SDS011;33252;48.122;11.538;2023-05-10T11:49:06;5.90;;;1.35;;
47519;SDS011;33252;48.122;11.538;2023-05-10T11:51:33;3.45;;;1.40;;
47519;SDS011;33252;48.122;11.538;2023-05-10T11:54:07;5.43;;;1.30;;
47519;SDS011;33252;48.122;11.538;2023-05-10T11:56:34;3.58;;;0.80;;
47519;SDS011;33252;48.122;11.538;2023-05-10T11:59:00;1.65;;;0.60;;
47519;SDS011;33252;48.122;11.538;2023-05-10T12:01:27;3.63;;;0.80;;
47519;SDS011;33252;48.122;11.538;2023-05-10T12:03:54;2.03;;;0.60;;
47519;SDS011;33252;48.122;11.538;2023-05-10T12:06:28;1.58;;;0.80;;
47519;SDS011;33252;48.122;11.538;2023-05-10T12:09:05;1.88;;;0.60;;
47519;SDS011;33252;48.122;11.538;2023-05-10T12:11:35;1.60;;;0.70;;
47519;SDS011;33252;48.122;11.538;2023-05-10T12:14:04;2.95;;;0.85;;
47519;SDS011;33252;48.122;11.538;2023-05-10T12:16:30;1.67;;;0.70;;
47519;SDS011;33252;48.122;11.538;2023-05-10T12:18:57;2.20;;;0.98;;
47519;SDS011;33252;48.122;11.538;2023-05-10T12:21:24;1.13;;;0.70;;
47519;SDS011;33252;48.122;11.538;2023-05-10T12:23:52;2.95;;;1.20;;
47519;SDS011;33252;48.122;11.538;2023-05-10T12:26:22;1.88;;;0.80;;
47519;SDS011;33252;48.122;11.538;2023-05-10T12:28:49;2.95;;;1.40;;
47519;SDS011;33252;48.122;11.538;2023-05-10T12:31:15;1.40;;;0.90;;
47519;SDS011;33252;48.122;11.538;2023-05-10T12:33:44;1.05;;;0.63;;
47519;SDS011;33252;48.122;11.538;2023-05-10T12:36:11;2.53;;;1.05;;
47519;SDS011;33252;48.122;11.538;2023-05-10T12:38:39;3.22;;;0.55;;
47519;SDS011;33252;48.122;11.538;2023-05-10T12:41:12;1.45;;;0.70;;
47519;SDS011;33252;48.122;11.538;2023-05-10T12:43:39;6.10;;;1.10;;
47519;SDS011;33252;48.122;11.538;2023-05-10T12:46:09;1.35;;;0.80;;
47519;SDS011;33252;48.122;11.538;2023-05-10T12:48:39;1.52;;;0.75;;
47519;SDS011;33252;48.122;11.538;2023-05-10T12:51:07;1.40;;;0.60;;
47519;SDS011;33252;48.122;11.538;2023-05-10T12:53:40;1.05;;;0.70;;
47519;SDS011;33252;48.122;11.538;2023-05-10T12:56:06;2.20;;;1.02;;
47519;SDS011;33252;48.122;11.538;2023-05-10T12:58:32;2.20;;;0.68;;
47519;SDS011;33252;48.122;11.538;2023-05-10T13:01:00;2.60;;;0.68;;
47519;SDS011;33252;48.122;11.538;2023-05-10T13:03:25;3.80;;;0.82;;
47519;SDS011;33252;48.122;11.538;2023-05-10T13:05:51;3.63;;;1.15;;
47519;SDS011;33252;48.122;11.538;2023-05-10T13:08:17;0.95;;;0.70;;
47519;SDS011;33252;48.122;11.538;2023-05-10T13:10:42;2.78;;;1.20;;
47519;SDS011;33252;48.122;11.538;2023-05-10T13:13:08;4.95;;;0.75;;
47519;SDS011;33252;48.122;11.538;2023-05-10T13:15:34;1.73;;;0.63;;
47519;SDS011;33252;48.122;11.538;2023-05-10T13:18:00;1.90;;;1.13;;
47519;SDS011;33252;48.122;11.538;2023-05-10T13:20:26;3.58;;;1.17;;
47519;SDS011;33252;48.122;11.538;2023-05-10T13:22:52;3.78;;;0.80;;
47519;SDS011;33252;48.122;11.538;2023-05-10T13:25:18;1.27;;;0.77;;
47519;SDS011;33252;48.122;11.538;2023-05-10T13:27:43;1.50;;;0.68;;
47519;SDS011;33252;48.122;11.538;2023-05-10T13:30:09;4.28;;;0.88;;
47519;SDS011;33252;48.122;11.538;2023-05-10T13:32:36;1.55;;;0.75;;
47519;SDS011;33252;48.122;11.538;2023-05-10T13:35:02;2.55;;;0.80;;
47519;SDS011;33252;48.122;11.538;2023-05-10T13:37:29;1.88;;;0.90;;
47519;SDS011;33252;48.122;11.538;2023-05-10T13:39:55;3.70;;;0.88;;
47519;SDS011;33252;48.122;11.538;2023-05-10T13:42:21;3.40;;;0.82;;
47519;SDS011;33252;48.122;11.538;2023-05-10T13:44:48;1.95;;;0.57;;
47519;SDS011;33252;48.122;11.538;2023-05-10T13:47:14;2.50;;;1.00;;
47519;SDS011;33252;48.122;11.538;2023-05-10T13:49:40;1.08;;;0.70;;
47519;SDS011;33252;48.122;11.538;2023-05-10T13:52:06;2.85;;;1.10;;
47519;SDS011;33252;48.122;11.538;2023-05-10T13:54:34;2.10;;;0.57;;
47519;SDS011;33252;48.122;11.538;2023-05-10T13:57:01;1.75;;;0.70;;
47519;SDS011;33252;48.122;11.538;2023-05-10T13:59:26;1.80;;;0.60;;
47519;SDS011;33252;48.122;11.538;2023-05-10T14:01:53;1.25;;;0.60;;
47519;SDS011;33252;48.122;11.538;2023-05-10T14:04:19;1.98;;;0.80;;
47519;SDS011;33252;48.122;11.538;2023-05-10T14:06:45;2.78;;;0.70;;
47519;SDS011;33252;48.122;11.538;2023-05-10T14:09:11;1.58;;;1.48;;
47519;SDS011;33252;48.122;11.538;2023-05-10T14:11:37;1.48;;;0.50;;
47519;SDS011;33252;48.122;11.538;2023-05-10T14:14:06;1.75;;;0.90;;
47519;SDS011;33252;48.122;11.538;2023-05-10T14:16:32;3.25;;;1.10;;
47519;SDS011;33252;48.122;11.538;2023-05-10T14:18:58;0.95;;;0.50;;
47519;SDS011;33252;48.122;11.538;2023-05-10T14:21:23;2.30;;;1.25;;
47519;SDS011;33252;48.122;11.538;2023-05-10T14:23:49;2.25;;;0.82;;
47519;SDS011;33252;48.122;11.538;2023-05-10T14:26:15;2.28;;;0.85;;
47519;SDS011;33252;48.122;11.538;2023-05-10T14:28:41;2.63;;;0.65;;
47519;SDS011;33252;48.122;11.538;2023-05-10T14:31:06;3.15;;;0.77;;
47519;SDS011;33252;48.122;11.538;2023-05-10T14:33:33;3.75;;;0.80;;
47519;SDS011;33252;48.122;11.538;2023-05-10T14:35:59;1.13;;;0.43;;
47519;SDS011;33252;48.122;11.538;2023-05-10T14:38:25;1.20;;;0.50;;
47519;SDS011;33252;48.122;11.538;2023-05-10T14:40:51;1.15;;;0.70;;
47519;SDS011;33252;48.122;11.538;2023-05-10T14:43:17;2.67;;;0.52;;
47519;SDS011;33252;48.122;11.538;2023-05-10T14:45:42;0.47;;;0.38;;
47519;SDS011;33252;48.122;11.538;2023-05-10T14:48:08;2.53;;;0.40;;
47519;SDS011;33252;48.122;11.538;2023-05-10T14:50:37;1.10;;;0.50;;
47519;SDS011;33252;48.122;11.538;2023-05-10T14:53:03;3.17;;;0.50;;
47519;SDS011;33252;48.122;11.538;2023-05-10T14:55:29;0.95;;;0.50;;
47519;SDS011;33252;48.122;11.538;2023-05-10T14:57:55;0.90;;;0.55;;
47519;SDS011;33252;48.122;11.538;2023-05-10T15:00:21;1.48;;;0.40;;
47519;SDS011;33252;48.122;11.538;2023-05-10T15:02:47;0.80;;;0.30;;